Time;durP1;ratioP1;P1;durP2;ratioP2;P2;SDS_P1;SDS_P2;PMS_P1;PMS_P2;Temp;Humidity;BMP_temperature;BMP_pressure;BME280_temperature;BME280_humidity;BME280_pressure;Samples;Min_cycle;Max_cycle;Signal;HPM_P1;HPM_P2
2024/01/09 00:01:34;;;;;;;4.55;1.90;;;;;;;-7.53;54.54;100198.38;5089091;28;20066;-75
2024/01/09 00:03:59;;;;;;;3.78;1.90;;;;;;;-7.66;54.39;100161.25;5092261;28;20043;-75
2024/01/09 00:06:28;;;;;;;3.65;1.90;;;;;;;-8.07;54.63;100086.84;5094551;28;20047;-77
2024/01/09 00:08:58;;;;;;;4.28;1.88;;;;;;;-7.50;54.43;100181.75;5078696;28;20036;-75
2024/01/09 00:11:27;;;;;;;4.22;2.05;;;;;;;-7.92;54.19;100113.19;5100008;28;20048;-75
2024/01/09 00:13:56;;;;;;;5.47;1.90;;;;;;;-7.50;54.53;100176.72;5082851;28;20035;-75
2024/01/09 00:16:23;;;;;;;5.60;2.00;;;;;;;-7.91;54.17;100117.47;5095831;28;20040;-75
2024/01/09 00:18:54;;;;;;;6.68;2.15;;;;;;;-7.61;53.60;100170.03;5094498;28;20100;-74
2024/01/09 00:21:24;;;;;;;4.68;1.98;;;;;;;-7.67;54.87;100164.56;5097915;28;20040;-75
2024/01/09 00:23:53;;;;;;;5.95;2.40;;;;;;;-7.94;54.87;100118.91;5076311;28;20035;-75
2024/01/09 00:26:22;;;;;;;3.97;2.00;;;;;;;-7.72;54.37;100151.59;5093268;28;20050;-75
2024/01/09 00:28:48;;;;;;;3.85;1.90;;;;;;;-8.08;54.89;100092.69;5098544;28;20061;-75
2024/01/09 00:31:16;;;;;;;4.70;2.10;;;;;;;-7.37;54.70;100187.69;5113087;28;20055;-75
2024/01/09 00:33:43;;;;;;;4.75;2.10;;;;;;;-7.23;55.07;100183.59;5082057;28;20051;-74
2024/01/09 00:36:09;;;;;;;3.35;1.98;;;;;;;-7.21;54.47;100176.97;5096849;28;20044;-73
2024/01/09 00:38:35;;;;;;;5.50;2.10;;;;;;;-7.20;54.74;100169.47;5093220;28;20083;-73
2024/01/09 00:41:05;;;;;;;4.63;1.90;;;;;;;-7.66;54.69;100091.38;5099364;28;20138;-74
2024/01/09 00:43:31;;;;;;;3.95;1.95;;;;;;;-7.17;54.99;100156.19;5097626;28;20046;-75
2024/01/09 00:46:04;;;;;;;2.90;1.63;;;;;;;-7.11;54.62;100164.16;5114850;28;20036;-75
2024/01/09 00:48:36;;;;;;;4.30;1.88;;;;;;;-7.03;54.79;100168.09;5097711;28;20046;-74
2024/01/09 00:51:05;;;;;;;5.18;2.03;;;;;;;-7.05;54.73;100159.53;5066702;28;20031;-75
2024/01/09 00:53:32;;;;;;;3.58;2.20;;;;;;;-7.06;55.03;100141.72;5079034;28;20044;-74
2024/01/09 00:56:08;;;;;;;4.47;1.80;;;;;;;-7.02;54.98;100131.00;5114192;28;20146;-74
2024/01/09 00:58:36;;;;;;;4.25;2.53;;;;;;;-6.81;54.80;100159.41;5081069;28;20135;-75
2024/01/09 01:01:04;;;;;;;3.60;2.10;;;;;;;-6.91;54.30;100169.69;5079891;28;20044;-76
2024/01/09 01:03:33;;;;;;;3.15;1.90;;;;;;;-6.86;54.96;100178.47;5081236;28;20146;-74
2024/01/09 01:06:08;;;;;;;3.38;1.90;;;;;;;-7.20;54.83;100106.25;5066116;28;20071;-76
2024/01/09 01:08:35;;;;;;;3.42;1.90;;;;;;;-7.54;54.91;100070.22;5098994;28;20066;-74
2024/01/09 01:11:01;;;;;;;4.70;1.92;;;;;;;-7.02;54.84;100149.63;5095127;28;20050;-74
2024/01/09 01:13:27;;;;;;;4.32;2.40;;;;;;;-6.87;54.57;100180.13;5092857;28;20103;-74
2024/01/09 01:15:59;;;;;;;5.03;2.35;;;;;;;-7.01;54.93;100168.19;5088351;28;20103;-73
2024/01/09 01:18:31;;;;;;;;;;;;;;;-6.97;55.09;100173.59;5077335;28;20050;-75
2024/01/09 01:20:56;;;;;;;2.83;1.63;;;;;;;-6.96;54.92;100167.75;5098434;28;19916;-75
2024/01/09 01:23:23;;;;;;;7.63;2.50;;;;;;;-7.09;55.27;100132.25;5077569;28;20043;-71
2024/01/09 01:25:51;;;;;;;3.67;2.20;;;;;;;-6.89;55.38;100156.38;5082311;28;20210;-72
2024/01/09 01:28:21;;;;;;;6.40;2.38;;;;;;;-7.14;54.75;100116.78;5095359;28;20040;-72
2024/01/09 01:30:47;;;;;;;6.28;2.60;;;;;;;-7.56;55.07;100047.38;5092441;28;20387;-72
2024/01/09 01:33:21;;;;;;;3.85;2.20;;;;;;;-7.17;54.48;100129.22;5112758;28;20051;-74
2024/01/09 01:35:47;;;;;;;4.28;2.17;;;;;;;-7.11;54.88;100160.00;5113039;28;20047;-75
2024/01/09 01:38:25;;;;;;;4.43;2.08;;;;;;;-7.22;55.29;100149.94;5092704;28;20036;-75
2024/01/09 01:40:54;;;;;;;;;;;;;;;-7.11;55.75;100154.94;5115648;28;20051;-74
2024/01/09 01:43:22;;;;;;;4.05;2.13;;;;;;;-7.23;55.31;100133.00;5076649;28;19916;-74
2024/01/09 01:45:54;;;;;;;3.40;1.90;;;;;;;-7.13;55.23;100164.06;5098119;28;20055;-74
2024/01/09 01:48:24;;;;;;;4.07;2.00;;;;;;;-7.37;55.81;100110.16;5078432;28;20114;-74
2024/01/09 01:50:50;;;;;;;5.47;2.30;;;;;;;-7.23;55.39;100133.00;5113118;28;20177;-74
2024/01/09 01:53:17;;;;;;;5.20;2.20;;;;;;;-6.92;55.61;100163.75;5081015;28;20050;-73
2024/01/09 01:55:45;;;;;;;5.07;2.20;;;;;;;-7.04;55.39;100135.09;5092525;28;20131;-74
2024/01/09 01:58:14;;;;;;;3.92;2.08;;;;;;;-7.06;55.09;100129.94;5078760;28;20162;-73
2024/01/09 02:00:58;;;;;;;4.05;2.17;;;;;;;-6.88;55.26;100162.31;5116526;28;20064;-75
2024/01/09 02:03:24;;;;;;;6.43;2.25;;;;;;;-7.36;55.39;100095.88;5096426;28;20062;-74
2024/01/09 02:06:02;;;;;;;4.03;2.00;;;;;;;-7.07;55.38;100140.84;5111063;28;20565;-74
2024/01/09 02:08:30;;;;;;;3.97;2.17;;;;;;;-7.11;55.53;100117.00;5075958;28;20044;-73
2024/01/09 02:10:59;;;;;;;4.80;2.17;;;;;;;-7.08;55.48;100105.31;5097261;28;20163;-78
2024/01/09 02:13:28;;;;;;;6.05;1.92;;;;;;;-6.82;55.55;100150.94;5114463;28;20035;-77
2024/01/09 02:16:00;;;;;;;4.40;2.08;;;;;;;-6.76;55.43;100168.19;5087091;28;20062;-77
2024/01/09 02:18:29;;;;;;;4.47;2.55;;;;;;;-6.72;55.54;100185.31;5113340;28;20457;-76
2024/01/09 02:20:55;;;;;;;3.97;2.10;;;;;;;-6.96;55.39;100129.78;5095125;28;20055;-78
2024/01/09 02:23:24;;;;;;;4.43;2.45;;;;;;;-7.04;55.37;100115.75;5080398;28;20039;-76
2024/01/09 02:25:52;;;;;;;4.28;2.33;;;;;;;-7.02;55.33;100116.72;5093590;28;20062;-77
2024/01/09 02:28:46;;;;;;;4.63;2.20;;;;;;;-6.78;55.61;100144.44;5081956;28;20036;-76
2024/01/09 02:31:13;;;;;;;2.97;1.77;;;;;;;-6.62;55.56;100166.59;5111439;28;20035;-76
2024/01/09 02:33:42;;;;;;;3.42;1.77;;;;;;;-6.72;55.55;100139.75;5094222;28;20043;-75
2024/01/09 02:36:09;;;;;;;4.38;2.08;;;;;;;-6.82;55.19;100129.81;5081256;28;20036;-74
2024/01/09 02:38:35;;;;;;;4.60;2.10;;;;;;;-6.60;55.44;100176.81;5077536;28;20372;-74
2024/01/09 02:41:01;;;;;;;4.10;1.85;;;;;;;-6.80;55.63;100140.91;5078722;28;20039;-75
2024/01/09 02:43:27;;;;;;;3.50;1.83;;;;;;;-6.75;55.60;100154.78;5091772;28;20039;-74
2024/01/09 02:45:53;;;;;;;4.22;1.80;;;;;;;-6.67;55.60;100152.75;5077862;28;20089;-75
2024/01/09 02:48:19;;;;;;;3.17;2.13;;;;;;;-6.77;55.36;100137.72;5070718;28;20035;-75
2024/01/09 02:50:55;;;;;;;4.50;2.15;;;;;;;-6.73;55.81;100147.25;5092664;28;20036;-74
2024/01/09 02:53:21;;;;;;;5.72;2.10;;;;;;;-6.60;55.43;100177.66;5078193;28;20409;-76
2024/01/09 02:55:53;;;;;;;4.43;2.33;;;;;;;-6.67;55.96;100162.88;5058077;28;20126;-74
2024/01/09 02:58:19;;;;;;;3.67;1.98;;;;;;;-6.52;56.11;100181.59;5092251;28;20536;-75
2024/01/09 03:00:45;;;;;;;4.78;2.17;;;;;;;-6.94;55.67;100102.03;5078356;28;20040;-75
2024/01/09 03:03:11;;;;;;;4.25;1.88;;;;;;;-6.63;55.77;100159.75;5094575;28;20488;-73
2024/01/09 03:05:38;;;;;;;5.45;2.33;;;;;;;-6.68;55.70;100151.84;5091315;28;20039;-77
2024/01/09 03:08:10;;;;;;;3.42;1.73;;;;;;;-6.61;55.88;100144.66;5068693;28;20528;-78
2024/01/09 03:10:36;;;;;;;4.68;2.17;;;;;;;-6.42;56.00;100172.94;5082030;28;20044;-76
2024/01/09 03:13:05;;;;;;;7.63;2.15;;;;;;;-6.51;55.94;100152.97;5084504;28;20046;-77
2024/01/09 03:15:31;;;;;;;6.15;2.50;;;;;;;-6.38;55.70;100161.34;5080668;28;20497;-77
2024/01/09 03:18:03;;;;;;;5.88;2.75;;;;;;;-6.24;55.94;100195.16;5084757;28;20374;-77
2024/01/09 03:20:29;;;;;;;4.93;2.20;;;;;;;-6.83;55.97;100079.97;5095232;28;20058;-76
2024/01/09 03:22:58;;;;;;;4.40;2.05;;;;;;;-6.53;56.43;100135.91;5100307;28;20062;-75
2024/01/09 03:25:26;;;;;;;4.63;1.88;;;;;;;-6.64;55.66;100111.53;5094586;28;20150;-73
2024/01/09 03:27:55;;;;;;;3.17;1.75;;;;;;;-6.33;55.82;100184.44;5098500;28;20063;-75
2024/01/09 03:30:24;;;;;;;2.80;1.73;;;;;;;-6.52;56.25;100147.81;5114617;28;20047;-76
2024/01/09 03:33:05;;;;;;;3.72;2.00;;;;;;;-6.36;56.34;100158.16;5082227;28;20074;-76
2024/01/09 03:35:34;;;;;;;4.03;2.33;;;;;;;-6.26;56.00;100176.44;5096019;28;20099;-75
2024/01/09 03:38:03;;;;;;;4.68;2.03;;;;;;;-6.38;55.73;100149.56;5099353;28;20036;-79
2024/01/09 03:40:33;;;;;;;3.08;1.80;;;;;;;-6.22;55.61;100165.75;5073826;28;20044;-76
2024/01/09 03:43:07;;;;;;;5.60;2.42;;;;;;;-6.23;55.65;100190.22;5090009;28;20036;-74
2024/01/09 03:45:35;;;;;;;3.83;1.90;;;;;;;-6.36;55.91;100160.69;5072768;28;20078;-72
2024/01/09 03:48:07;;;;;;;4.07;1.95;;;;;;;-6.53;55.48;100124.13;5075226;28;20064;-73
2024/01/09 03:50:36;;;;;;;3.35;1.70;;;;;;;-6.68;56.19;100101.22;5091370;28;20089;-74
2024/01/09 03:53:02;;;;;;;4.15;2.08;;;;;;;-6.44;55.88;100143.22;5072230;28;20047;-75
2024/01/09 03:55:36;;;;;;;3.20;1.77;;;;;;;-6.20;56.21;100171.78;5059773;28;20499;-72
2024/01/09 03:58:18;;;;;;;3.78;1.90;;;;;;;-6.81;55.88;100099.53;5086860;28;20032;-75
2024/01/09 04:00:49;;;;;;;4.22;1.90;;;;;;;-6.41;55.49;100173.81;5084489;28;20043;-74
2024/01/09 04:03:22;;;;;;;6.53;2.10;;;;;;;-6.42;56.16;100167.00;5070745;28;20044;-72
2024/01/09 04:05:48;;;;;;;2.55;1.58;;;;;;;-6.54;56.00;100141.75;5093064;28;20040;-73
2024/01/09 04:08:14;;;;;;;4.90;2.22;;;;;;;-6.36;55.83;100169.91;5089946;28;20037;-73
2024/01/09 04:10:45;;;;;;;4.68;2.08;;;;;;;-7.02;55.93;100078.78;5088136;28;20040;-74
2024/01/09 04:13:12;;;;;;;5.20;2.15;;;;;;;-6.51;55.49;100164.75;5085600;28;20043;-73
2024/01/09 04:15:39;;;;;;;3.88;1.90;;;;;;;-6.68;55.75;100140.84;5056825;28;20496;-72
2024/01/09 04:18:14;;;;;;;4.03;2.03;;;;;;;-7.08;55.98;100077.50;5083975;28;20044;-71
2024/01/09 04:20:43;;;;;;;3.40;1.70;;;;;;;-6.63;56.01;100136.97;5083494;28;20064;-71
2024/01/09 04:23:11;;;;;;;3.65;1.65;;;;;;;-6.70;56.03;100128.06;5072109;28;20036;-72
2024/01/09 04:25:45;;;;;;;3.92;1.80;;;;;;;-6.54;56.29;100156.97;5070471;28;20112;-71
2024/01/09 04:28:12;;;;;;;3.47;1.98;;;;;;;-6.60;56.06;100152.34;5086086;28;20469;-72
2024/01/09 04:30:44;;;;;;;3.25;1.42;;;;;;;-6.71;55.57;100146.56;5071954;28;20077;-75
2024/01/09 04:33:12;;;;;;;2.80;1.48;;;;;;;-6.70;55.50;100144.94;5088652;28;20051;-72
2024/01/09 04:36:19;;;;;;;13.32;2.08;;;;;;;-6.42;56.22;100195.72;5089053;28;20044;-73
2024/01/09 04:38:49;;;;;;;4.85;1.75;;;;;;;-6.85;55.92;100106.84;5062886;28;20040;-73
2024/01/09 04:41:24;;;;;;;2.55;1.48;;;;;;;-6.48;55.58;100180.13;5074414;28;20128;-73
2024/01/09 04:43:53;;;;;;;4.10;1.70;;;;;;;-7.00;55.75;100097.47;5084654;28;20104;-74
2024/01/09 04:46:19;;;;;;;6.65;2.10;;;;;;;-6.21;55.90;100211.47;5083294;28;20199;-73
2024/01/09 04:48:51;;;;;;;3.42;1.95;;;;;;;-6.35;55.54;100176.75;5069350;28;20043;-73
2024/01/09 04:51:18;;;;;;;4.30;1.90;;;;;;;-6.63;56.15;100129.38;5071762;28;20042;-72
2024/01/09 04:53:47;;;;;;;3.17;1.80;;;;;;;-6.51;55.79;100129.31;5090158;28;20044;-72
2024/01/09 04:56:14;;;;;;;5.60;2.00;;;;;;;-6.77;55.47;100084.53;5073841;28;20062;-72
2024/01/09 04:58:45;;;;;;;2.60;1.60;;;;;;;-6.24;55.69;100185.03;5062663;28;20421;-72
2024/01/09 05:01:14;;;;;;;5.38;1.77;;;;;;;-6.03;55.46;100212.53;5088615;28;20036;-73
2024/01/09 05:03:58;;;;;;;3.53;1.98;;;;;;;-6.21;55.72;100180.16;5062762;28;20236;-73
2024/01/09 05:06:24;;;;;;;5.10;2.10;;;;;;;-6.44;55.42;100131.44;5086804;28;20067;-73
2024/01/09 05:08:50;;;;;;;4.68;1.80;;;;;;;-6.13;55.55;100179.00;5092823;28;20058;-75
2024/01/09 05:11:17;;;;;;;2.80;1.50;;;;;;;-6.36;55.15;100139.53;5077898;28;20114;-76
2024/01/09 05:13:44;;;;;;;3.75;2.00;;;;;;;-6.27;55.87;100156.97;5069755;28;20044;-75
2024/01/09 05:16:13;;;;;;;5.93;2.08;;;;;;;-6.25;56.00;100173.13;5085720;28;20040;-71
2024/01/09 05:18:41;;;;;;;3.60;2.10;;;;;;;-6.03;55.95;100215.97;5090005;28;20559;-72
2024/01/09 05:21:07;;;;;;;3.40;2.20;;;;;;;-6.02;55.98;100212.66;5094455;28;20036;-73
2024/01/09 05:23:33;;;;;;;4.53;2.17;;;;;;;-5.88;56.26;100215.13;5061303;28;20047;-73
2024/01/09 05:26:02;;;;;;;4.38;2.17;;;;;;;-5.99;55.42;100210.28;5089798;28;21647;-73
2024/01/09 05:28:35;;;;;;;5.20;2.13;;;;;;;-6.24;55.53;100179.97;5075257;28;20032;-72
2024/01/09 05:31:10;;;;;;;4.93;2.38;;;;;;;-6.07;56.02;100206.41;5074209;28;20460;-74
2024/01/09 05:33:39;;;;;;;6.75;2.70;;;;;;;-5.86;55.97;100227.16;5087828;28;20044;-74
2024/01/09 05:36:06;;;;;;;6.50;3.03;;;;;;;-5.82;56.18;100231.63;5094640;28;20044;-74
2024/01/09 05:38:33;;;;;;;5.43;2.08;;;;;;;-5.95;55.67;100214.75;5093316;28;20043;-75
2024/01/09 05:41:05;;;;;;;4.43;2.00;;;;;;;-5.90;55.64;100225.19;5058681;28;20067;-73
2024/01/09 05:43:31;;;;;;;6.07;2.30;;;;;;;-5.86;55.80;100236.41;5086624;28;20039;-73
2024/01/09 05:45:57;;;;;;;5.85;2.30;;;;;;;-5.82;56.23;100249.34;5086149;28;20040;-73
2024/01/09 05:48:24;;;;;;;4.55;2.10;;;;;;;-5.94;56.01;100235.91;5058906;28;20071;-76
2024/01/09 05:50:50;;;;;;;4.63;2.13;;;;;;;-6.00;55.79;100205.13;5076028;28;20068;-73
2024/01/09 05:53:36;;;;;;;4.63;2.30;;;;;;;-5.96;55.91;100213.03;5075053;28;20147;-71
2024/01/09 05:56:23;;;;;;;7.95;3.08;;;;;;;-6.46;56.29;100132.97;5059841;28;20047;-74
2024/01/09 05:58:49;;;;;;;5.10;2.53;;;;;;;-5.97;55.98;100197.69;5071561;28;20068;-74
2024/01/09 06:01:16;;;;;;;5.70;2.45;;;;;;;-5.62;56.01;100249.75;5090881;28;20039;-74
2024/01/09 06:03:52;;;;;;;5.97;2.30;;;;;;;-6.24;55.88;100149.56;5095530;28;20048;-71
2024/01/09 06:06:21;;;;;;;4.18;2.50;;;;;;;-5.90;56.08;100189.72;5094769;28;20047;-71
2024/01/09 06:08:48;;;;;;;5.07;2.30;;;;;;;-5.75;55.48;100220.22;5089728;28;20047;-73
2024/01/09 06:11:35;;;;;;;3.85;2.20;;;;;;;-5.52;55.83;100241.94;5077356;28;20104;-68
2024/01/09 06:14:07;;;;;;;5.25;2.17;;;;;;;-5.92;56.13;100158.31;5077567;28;20128;-69
2024/01/09 06:16:43;;;;;;;3.72;2.25;;;;;;;-6.08;55.09;100159.91;5098704;28;20038;-67
2024/01/09 06:19:11;;;;;;;4.40;1.90;;;;;;;-5.84;55.62;100205.28;5095417;28;20047;-69
2024/01/09 06:21:53;;;;;;;4.43;2.40;;;;;;;-5.68;55.70;100218.94;5068641;28;20037;-73
2024/01/09 06:24:21;;;;;;;4.15;2.30;;;;;;;-5.50;55.81;100255.63;5097323;28;20143;-71
2024/01/09 06:26:50;;;;;;;5.63;2.40;;;;;;;-5.61;56.28;100238.81;5097820;28;20402;-70
2024/01/09 06:29:28;;;;;;;5.72;2.08;;;;;;;-5.69;55.49;100227.34;5099061;28;20043;-70
2024/01/09 06:32:05;;;;;;;5.15;2.08;;;;;;;-5.54;55.80;100242.66;5091960;28;20046;-70
2024/01/09 06:34:36;;;;;;;5.53;2.40;;;;;;;-5.35;56.17;100264.94;5080358;28;20063;-70
2024/01/09 06:37:03;;;;;;;6.07;2.67;;;;;;;-5.38;55.97;100241.91;5078778;28;20036;-71
2024/01/09 06:39:30;;;;;;;4.32;2.28;;;;;;;-5.30;55.71;100251.78;5077905;28;20062;-70
2024/01/09 06:42:02;;;;;;;5.53;2.30;;;;;;;-5.26;55.74;100249.41;5090910;28;20806;-71
2024/01/09 06:44:39;;;;;;;4.70;2.22;;;;;;;-5.18;55.48;100269.41;5077775;28;20043;-72
2024/01/09 06:47:42;;;;;;;4.68;2.15;;;;;;;-5.13;55.76;100269.72;5083499;28;20032;-70
2024/01/09 06:50:12;;;;;;;4.72;2.50;;;;;;;-5.06;55.74;100271.81;5092408;28;20047;-69
2024/01/09 06:52:38;;;;;;;4.45;2.33;;;;;;;-5.08;55.88;100264.91;5089359;28;20040;-69
2024/01/09 06:55:15;;;;;;;5.93;2.45;;;;;;;-5.18;55.87;100260.94;5098288;28;20047;-69
2024/01/09 06:57:48;;;;;;;4.88;2.42;;;;;;;-5.27;56.22;100223.19;5093447;28;20032;-69
2024/01/09 07:00:21;;;;;;;5.50;2.55;;;;;;;-5.00;55.86;100258.66;5095678;28;20049;-67
2024/01/09 07:03:04;;;;;;;12.10;2.90;;;;;;;-4.75;55.44;100280.47;5100233;28;20044;-68
2024/01/09 07:05:38;;;;;;;4.00;2.55;;;;;;;-4.72;55.92;100276.44;5098465;28;20048;-69
2024/01/09 07:08:10;;;;;;;7.28;3.15;;;;;;;-4.97;55.09;100238.53;5094215;28;20040;-71
2024/01/09 07:10:36;;;;;;;5.93;2.78;;;;;;;-4.89;55.78;100254.22;5093796;28;20035;-69
2024/01/09 07:13:07;;;;;;;4.80;2.35;;;;;;;-4.72;55.75;100278.06;5100754;28;20040;-69
2024/01/09 07:15:33;;;;;;;3.97;2.55;;;;;;;-4.61;55.81;100293.97;5095372;28;20084;-71
2024/01/09 07:18:22;;;;;;;5.88;2.83;;;;;;;-4.69;55.62;100285.88;5089930;28;20090;-71
2024/01/09 07:20:48;;;;;;;4.65;3.03;;;;;;;-4.79;56.03;100253.13;5071331;28;20047;-70
2024/01/09 07:23:20;;;;;;;6.18;2.60;;;;;;;-5.05;55.42;100220.28;5060204;28;20127;-71
2024/01/09 07:25:46;;;;;;;7.75;2.53;;;;;;;-4.80;55.72;100264.06;5075731;28;20090;-70
2024/01/09 07:28:15;;;;;;;4.20;2.55;;;;;;;-4.84;55.30;100258.78;5075010;28;20063;-70
2024/01/09 07:30:45;;;;;;;6.93;2.90;;;;;;;-5.18;55.77;100185.66;5060613;28;20120;-69
2024/01/09 07:33:11;;;;;;;4.10;2.20;;;;;;;-4.67;56.02;100271.63;5056072;28;20039;-70
2024/01/09 07:35:39;;;;;;;5.13;2.67;;;;;;;-4.71;55.56;100262.94;5072797;28;20040;-76
2024/01/09 07:40:54;;;;;;;4.20;2.28;;;;;;;-4.70;55.84;100294.28;5074284;28;20068;-68
2024/01/09 07:43:24;;;;;;;6.20;2.75;;;;;;;-4.76;55.80;100268.53;5092691;28;20055;-68
2024/01/09 07:45:50;;;;;;;5.72;2.88;;;;;;;-4.80;56.14;100286.91;5072426;28;20127;-74
2024/01/09 07:48:16;;;;;;;4.28;2.33;;;;;;;-4.75;55.56;100285.53;5076583;28;20076;-71
2024/01/09 07:50:48;;;;;;;6.78;3.13;;;;;;;-4.57;55.60;100311.16;5074726;28;20106;-74
2024/01/09 07:53:23;;;;;;;4.65;1.90;;;;;;;-4.53;55.32;100300.38;5068665;28;20512;-69
2024/01/09 07:55:49;;;;;;;4.80;2.30;;;;;;;-4.78;55.21;100276.06;5086775;28;20059;-68
2024/01/09 07:58:19;;;;;;;5.43;2.50;;;;;;;-4.57;55.63;100312.03;5088926;28;20055;-71
2024/01/09 08:00:48;;;;;;;4.78;2.40;;;;;;;-5.14;55.48;100210.44;5093626;28;20043;-71
2024/01/09 08:03:16;;;;;;;3.92;2.25;;;;;;;-5.49;55.22;100160.09;5073670;28;20048;-74
2024/01/09 08:06:06;;;;;;;3.72;2.03;;;;;;;-4.50;55.42;100320.00;5078984;28;20085;-74
2024/01/09 08:08:38;;;;;;;7.22;2.50;;;;;;;-5.09;55.19;100213.28;5086774;28;20051;-67
2024/01/09 08:11:05;;;;;;;5.00;2.80;;;;;;;-4.56;55.86;100307.81;5074251;28;20066;-71
2024/01/09 08:13:33;;;;;;;4.88;2.40;;;;;;;-4.51;55.30;100324.22;5094276;28;20040;-74
2024/01/09 08:16:16;;;;;;;7.30;2.40;;;;;;;-4.78;55.63;100260.81;5089722;28;20052;-74
2024/01/09 08:18:42;;;;;;;4.97;2.40;;;;;;;-4.86;55.43;100267.13;5091847;28;20105;-70
2024/01/09 08:21:08;;;;;;;4.80;2.40;;;;;;;-4.45;55.47;100323.72;5056977;28;20040;-71
2024/01/09 08:23:38;;;;;;;3.08;1.75;;;;;;;-4.52;55.04;100301.28;5087527;28;20040;-71
2024/01/09 08:26:11;;;;;;;4.07;1.90;;;;;;;-5.01;55.16;100252.69;5096731;28;20042;-71
2024/01/09 08:28:37;;;;;;;5.50;2.15;;;;;;;-4.66;55.21;100318.22;5073216;28;20044;-70
2024/01/09 08:31:10;;;;;;;4.18;1.95;;;;;;;-4.60;55.30;100299.16;5089850;28;20051;-70
2024/01/09 08:33:39;;;;;;;2.55;1.73;;;;;;;-4.88;55.31;100272.09;5088029;28;20016;-69
2024/01/09 08:36:12;;;;;;;2.72;1.58;;;;;;;-4.78;54.89;100275.19;5077905;28;20050;-73
2024/01/09 08:38:44;;;;;;;5.63;2.33;;;;;;;-4.85;54.92;100264.66;5088925;28;20124;-71
2024/01/09 08:41:10;;;;;;;10.13;1.73;;;;;;;-4.52;55.05;100319.06;5102952;28;20052;-73
2024/01/09 08:43:37;;;;;;;4.13;1.73;;;;;;;-4.60;55.09;100305.88;5111189;28;20645;-72
2024/01/09 08:46:12;;;;;;;3.55;1.77;;;;;;;-4.71;54.95;100274.75;5094650;28;20043;-73
2024/01/09 08:48:39;;;;;;;3.13;1.55;;;;;;;-4.64;54.72;100264.19;5115185;28;20043;-76
2024/01/09 08:51:09;;;;;;;4.45;1.95;;;;;;;-4.84;54.73;100225.78;5100503;28;20072;-73
2024/01/09 08:53:35;;;;;;;4.22;1.70;;;;;;;-4.81;53.86;100242.84;5096266;28;20067;-73
2024/01/09 08:56:01;;;;;;;3.92;1.30;;;;;;;-4.63;54.11;100247.28;5096070;28;20099;-73
2024/01/09 08:58:27;;;;;;;3.75;1.67;;;;;;;-4.30;54.46;100296.66;5117331;28;20035;-70
2024/01/09 09:00:56;;;;;;;4.25;1.33;;;;;;;-4.63;54.49;100232.91;5098273;28;20035;-69
2024/01/09 09:03:44;;;;;;;4.97;1.63;;;;;;;-4.16;54.22;100294.94;5096172;28;20131;-70
2024/01/09 09:06:10;;;;;;;2.58;1.50;;;;;;;-4.20;54.46;100271.78;5084639;28;20047;-72
2024/01/09 09:08:40;;;;;;;2.90;1.50;;;;;;;-4.16;53.86;100263.56;5119441;28;20195;-74
2024/01/09 09:11:14;;;;;;;1.92;1.30;;;;;;;-4.06;53.95;100285.31;5094415;28;20036;-72
2024/01/09 09:13:44;;;;;;;2.60;1.63;;;;;;;-4.06;54.10;100281.09;5067292;28;20036;-72
2024/01/09 09:16:10;;;;;;;3.40;1.40;;;;;;;-4.11;53.72;100262.16;5083805;28;20035;-71
2024/01/09 09:18:40;;;;;;;3.30;1.70;;;;;;;-4.31;53.55;100213.59;5119090;28;20032;-74
2024/01/09 09:21:11;;;;;;;2.10;1.40;;;;;;;-3.96;53.42;100260.50;5115069;28;20040;-71
2024/01/09 09:23:38;;;;;;;2.47;1.40;;;;;;;-3.67;53.98;100285.81;5097467;28;20035;-69
2024/01/09 09:26:05;;;;;;;5.13;1.83;;;;;;;-3.84;53.01;100249.25;5097821;28;20070;-71
2024/01/09 09:28:35;;;;;;;2.42;1.40;;;;;;;-3.74;53.17;100269.34;5081876;28;20834;-70
2024/01/09 09:31:01;;;;;;;3.17;1.88;;;;;;;-3.70;53.13;100253.47;5111972;28;20146;-71
2024/01/09 09:33:33;;;;;;;3.30;1.55;;;;;;;-3.57;52.79;100292.28;5114288;28;20046;-69
2024/01/09 09:36:06;;;;;;;3.53;1.73;;;;;;;-3.59;53.00;100278.59;5094515;28;20043;-71
2024/01/09 09:38:37;;;;;;;2.72;1.77;;;;;;;-3.59;52.31;100283.69;5077411;28;20477;-69
2024/01/09 09:41:14;;;;;;;3.15;1.52;;;;;;;-3.84;52.68;100228.91;5091982;28;20048;-70
2024/01/09 09:44:10;;;;;;;2.38;1.55;;;;;;;-3.57;52.62;100261.75;5090477;28;20345;-69
2024/01/09 09:46:42;;;;;;;3.78;1.60;;;;;;;-3.54;52.73;100251.75;5105643;28;20047;-70
2024/01/09 09:49:09;;;;;;;2.25;1.50;;;;;;;-3.50;52.69;100269.81;5089477;28;20036;-71
2024/01/09 09:51:45;;;;;;;3.78;1.40;;;;;;;-3.33;52.49;100263.09;5094168;28;20062;-71
2024/01/09 09:54:18;;;;;;;2.35;1.70;;;;;;;-3.40;52.28;100253.38;5075783;28;20036;-72
2024/01/09 09:56:47;;;;;;;3.83;1.50;;;;;;;-3.34;52.49;100266.44;5096959;28;20114;-72
2024/01/09 09:59:14;;;;;;;2.10;1.35;;;;;;;-3.29;52.00;100248.00;5094104;28;20205;-73
2024/01/09 10:01:46;;;;;;;2.75;1.77;;;;;;;-3.25;52.37;100255.88;5109024;28;20032;-72
2024/01/09 10:04:29;;;;;;;4.68;1.60;;;;;;;-3.52;51.72;100220.50;5093859;28;20099;-73
2024/01/09 10:07:10;;;;;;;3.78;1.92;;;;;;;-3.45;51.58;100223.38;5075172;28;20039;-70
2024/01/09 10:09:46;;;;;;;2.97;1.70;;;;;;;-3.31;51.55;100240.31;5079037;28;20041;-72
2024/01/09 10:12:19;;;;;;;2.33;1.60;;;;;;;-3.20;51.44;100230.69;5094085;28;20044;-72
2024/01/09 10:15:11;;;;;;;3.22;1.83;;;;;;;-3.00;51.78;100247.00;5096381;28;20036;-72
2024/01/09 10:17:48;;;;;;;6.07;2.35;;;;;;;-2.82;51.67;100244.56;5083107;28;20036;-70
2024/01/09 10:20:29;;;;;;;2.72;1.88;;;;;;;-2.66;51.62;100204.59;5090724;28;20158;-74
2024/01/09 10:23:02;;;;;;;5.97;2.00;;;;;;;-2.59;49.65;100224.50;5079667;28;20548;-72
2024/01/09 10:25:31;;;;;;;4.05;1.95;;;;;;;-2.61;50.99;100216.75;5078098;28;20368;-71
2024/01/09 10:27:57;;;;;;;4.85;1.80;;;;;;;-2.62;50.92;100181.88;5096378;28;20093;-71
2024/01/09 10:30:33;;;;;;;3.85;2.00;;;;;;;-2.43;50.75;100182.81;5092449;28;20036;-72
2024/01/09 10:32:59;;;;;;;3.03;1.90;;;;;;;-2.18;50.94;100201.84;5090116;28;20041;-71
2024/01/09 10:35:31;;;;;;;3.33;2.30;;;;;;;-2.22;50.20;100203.38;5062028;28;20090;-70
2024/01/09 10:38:33;;;;;;;4.20;2.28;;;;;;;-2.32;50.17;100208.84;5092549;28;20047;-72
2024/01/09 10:41:23;;;;;;;4.75;2.15;;;;;;;-2.44;50.66;100184.47;5094351;28;20105;-70
2024/01/09 10:43:53;;;;;;;4.07;1.98;;;;;;;-2.27;50.52;100198.06;5103960;28;20044;-74
2024/01/09 10:46:32;;;;;;;3.53;2.28;;;;;;;-2.29;49.92;100192.00;5090068;28;20046;-77
2024/01/09 10:49:06;;;;;;;4.50;2.30;;;;;;;-2.27;49.98;100195.53;5083184;28;20122;-74
2024/01/09 10:51:53;;;;;;;4.13;2.17;;;;;;;-2.35;50.01;100201.03;5089995;28;20036;-76
2024/01/09 10:54:20;;;;;;;4.28;2.10;;;;;;;-2.45;50.46;100161.47;5068175;28;20044;-76
2024/01/09 10:56:49;;;;;;;4.05;1.88;;;;;;;-2.25;50.19;100193.03;5081120;28;20040;-72
2024/01/09 10:59:22;;;;;;;3.40;2.08;;;;;;;-2.40;49.91;100194.84;5076913;28;20041;-74
2024/01/09 11:01:58;;;;;;;3.55;2.33;;;;;;;-2.80;49.46;100132.53;5072444;28;20113;-76
2024/01/09 11:04:47;;;;;;;2.33;1.92;;;;;;;-2.63;49.94;100151.22;5078285;28;20063;-76
2024/01/09 11:07:19;;;;;;;5.88;2.22;;;;;;;-2.46;50.14;100187.75;5089088;28;20067;-74
2024/01/09 11:09:49;;;;;;;2.95;2.15;;;;;;;-3.23;49.75;100059.97;5087277;28;20059;-75
2024/01/09 11:12:27;;;;;;;4.50;2.40;;;;;;;-2.52;49.72;100174.69;5071126;28;20251;-76
2024/01/09 11:15:03;;;;;;;4.65;2.47;;;;;;;-2.58;49.56;100165.94;5088426;28;20075;-76
2024/01/09 11:17:50;;;;;;;4.15;2.60;;;;;;;-2.82;49.64;100119.75;5091436;28;21737;-73
2024/01/09 11:20:19;;;;;;;4.95;2.42;;;;;;;-2.57;49.53;100160.06;5104956;28;20043;-72
2024/01/09 11:22:46;;;;;;;4.72;2.53;;;;;;;-3.18;49.36;100059.38;5078697;28;20032;-75
2024/01/09 11:25:21;;;;;;;5.68;2.45;;;;;;;-2.79;49.73;100114.81;5094773;28;20035;-74
2024/01/09 11:27:55;;;;;;;4.05;2.38;;;;;;;-2.69;49.59;100145.81;5087425;28;20037;-72
2024/01/09 11:30:30;;;;;;;3.67;2.20;;;;;;;-2.66;49.76;100153.63;5100921;28;20040;-79
2024/01/09 11:33:27;;;;;;;4.05;2.22;;;;;;;-2.67;49.79;100167.16;5095840;28;20040;-72
2024/01/09 11:36:05;;;;;;;3.95;2.50;;;;;;;-2.85;49.39;100150.16;5061060;28;20181;-72
2024/01/09 11:38:33;;;;;;;5.78;3.00;;;;;;;-2.97;49.45;100146.97;5078829;28;20040;-74
2024/01/09 11:41:09;;;;;;;6.47;3.30;;;;;;;-3.29;49.58;100110.56;5076663;28;20051;-73
2024/01/09 11:44:05;;;;;;;5.65;3.35;;;;;;;-3.04;49.82;100145.78;5060169;28;20071;-74
2024/01/09 11:46:41;;;;;;;6.78;3.10;;;;;;;-3.15;49.68;100132.50;5081881;28;20036;-75
2024/01/09 11:49:10;;;;;;;5.40;2.90;;;;;;;-3.46;50.08;100097.81;5095654;28;20088;-72